»·PEaware :: N179CX L88-KBFL

N179CX :: L88-KBFL

FLIGHT INFORMATION

Flight Status: Arrived
Operator: Privately registered:
United States
More flights under this callsign
Pilot: Iain S. (20216)
Aircraft: PIPER PA-28 CHEROKEE ARCHER
(P28A)
More flights by this aircraft type
Origin: L88 New Cuyama
United States
Destination: KBFL Meadows
United States
More flights between these airports :: More routes between these airports
Route:
File this flight plan on PilotEdge
Remarks:
Altitude:
(Current/Filed)
5,500ft
Speed:
(Current/Filed)
100kts
Departed: 22-Sep-18 01:48 PM
Arrived: 22-Sep-18 02:19 PM
Distance/Time
Traveled:
43nm/0:30
Distance/Time
To Go:
Arrived

Flight Plot

Page will automatically refresh every two minutes.


Map Options




Map Legend


Flown Route
Filed Route
Departure Airport
Arrival Airport
Navaid (VOR, NDB)
Fix

Horizontal Profiles

Position Reports

Time Latitude Longitude Heading Altitude Ground
Speed
22-Sep-18 13:27 34.942855 -119.690285 204 2206ft 0kts
22-Sep-18 13:28 34.942855 -119.690285 204 2206ft 0kts
22-Sep-18 13:29 34.942855 -119.690285 204 2206ft 0kts
22-Sep-18 13:30 34.942855 -119.690285 204 2206ft 0kts
22-Sep-18 13:31 34.942855 -119.690285 204 2206ft 0kts
22-Sep-18 13:32 34.942855 -119.690285 204 2206ft 0kts
22-Sep-18 13:33 34.942835 -119.690297 203 2206ft 0kts
22-Sep-18 13:34 34.942835 -119.690297 203 2206ft 0kts
22-Sep-18 13:35 34.942835 -119.690297 203 2206ft 0kts
22-Sep-18 13:36 34.942835 -119.690297 203 2206ft 0kts
22-Sep-18 13:37 34.942835 -119.690297 203 2206ft 0kts
22-Sep-18 13:38 34.942835 -119.690297 203 2206ft 0kts
22-Sep-18 13:39 34.942835 -119.690297 203 2206ft 0kts
22-Sep-18 13:40 34.942835 -119.690297 203 2206ft 0kts
22-Sep-18 13:41 34.942835 -119.690297 203 2206ft 0kts
22-Sep-18 13:42 34.942835 -119.690297 203 2206ft 0kts
22-Sep-18 13:43 34.942835 -119.690297 203 2206ft 0kts
22-Sep-18 13:44 34.942785 -119.690720 290 2206ft 4kts
22-Sep-18 13:45 34.942699 -119.691183 184 2206ft 0kts
22-Sep-18 13:46 34.942699 -119.691183 184 2206ft 0kts
22-Sep-18 13:47 34.941495 -119.689308 117 2206ft 17kts
22-Sep-18 13:48 34.938760 -119.682669 116 2206ft 25kts
22-Sep-18 13:49 34.937883 -119.680561 294 2206ft 0kts
22-Sep-18 13:50 34.945642 -119.695264 308 2621ft 70kts
22-Sep-18 13:51 34.943356 -119.713063 180 3374ft 68kts
22-Sep-18 13:52 34.937924 -119.691553 85 4035ft 76kts
22-Sep-18 13:53 34.939012 -119.664727 86 4724ft 80kts
22-Sep-18 13:54 34.941440 -119.637069 80 5332ft 88kts
22-Sep-18 13:55 34.940582 -119.602516 94 5551ft 106kts
22-Sep-18 13:56 34.932025 -119.565787 107 5504ft 117kts
22-Sep-18 13:57 34.927508 -119.526365 88 5455ft 118kts
22-Sep-18 13:58 34.930584 -119.487193 75 5482ft 117kts
22-Sep-18 13:59 34.947457 -119.453153 43 5400ft 119kts
22-Sep-18 14:00 34.977918 -119.439697 20 5377ft 118kts
22-Sep-18 14:01 35.007531 -119.424326 22 5450ft 114kts
22-Sep-18 14:02 35.037651 -119.409970 22 5438ft 117kts
22-Sep-18 14:03 35.067042 -119.392369 28 5413ft 117kts
22-Sep-18 14:04 35.095035 -119.372555 29 5434ft 116kts
22-Sep-18 14:05 35.123347 -119.354999 25 5422ft 117kts
22-Sep-18 14:06 35.149050 -119.339151 24 5463ft 116kts
22-Sep-18 14:07 35.175581 -119.322691 31 5455ft 117kts
22-Sep-18 14:08 35.204978 -119.304407 25 5368ft 119kts
22-Sep-18 14:09 35.233607 -119.283271 41 5167ft 124kts
22-Sep-18 14:10 35.261418 -119.255794 40 4467ft 131kts
22-Sep-18 14:11 35.288310 -119.226979 39 3898ft 128kts
22-Sep-18 14:12 35.315598 -119.199754 37 3355ft 127kts
22-Sep-18 14:13 35.343808 -119.173588 36 2753ft 127kts
22-Sep-18 14:14 35.361534 -119.139744 71 2485ft 118kts
22-Sep-18 14:15 35.365109 -119.101253 86 2366ft 112kts
22-Sep-18 14:16 35.367365 -119.063880 73 2239ft 105kts
22-Sep-18 14:17 35.379265 -119.032135 73 2157ft 98kts
22-Sep-18 14:18 35.386395 -119.000305 24 2037ft 92kts
22-Sep-18 14:19 35.408036 -119.025012 314 1313ft 106kts
22-Sep-18 14:20 35.423958 -119.044168 315 838ft 66kts
22-Sep-18 14:21 35.434533 -119.057019 314 509ft 25kts
22-Sep-18 14:22 35.436282 -119.057772 67 509ft 0kts
22-Sep-18 14:23 35.436282 -119.057772 67 509ft 0kts
22-Sep-18 14:24 35.436282 -119.057772 67 509ft 0kts
22-Sep-18 14:25 35.435754 -119.056279 135 509ft 10kts
22-Sep-18 14:26 35.435272 -119.053692 46 509ft 8kts
22-Sep-18 14:27 35.435719 -119.053073 189 509ft 0kts
22-Sep-18 14:28 35.435719 -119.053073 191 509ft 0kts
22-Sep-18 14:29 35.435719 -119.053073 191 509ft 0kts
22-Sep-18 14:30 35.435719 -119.053073 191 509ft 0kts
22-Sep-18 14:31 35.435719 -119.053073 191 509ft 0kts
22-Sep-18 14:32 35.435719 -119.053073 191 509ft 0kts
22-Sep-18 14:33 35.435719 -119.053073 191 509ft 0kts
22-Sep-18 14:34 35.435719 -119.053073 191 509ft 0kts
22-Sep-18 14:35 35.435719 -119.053073 191 509ft 0kts

Navigation Log

Ident Type
1. L88 Airport
2. KBFL Airport